createdAt,value
2019-02-22T00:00:35.074Z,20.00
2019-02-22T00:03:04.379Z,21.55
2019-02-22T00:05:33.180Z,21.40
2019-02-22T00:08:01.946Z,19.80
2019-02-22T00:10:30.766Z,19.30
2019-02-22T00:12:59.549Z,20.05
2019-02-22T00:15:28.334Z,15.55
2019-02-22T00:17:57.089Z,15.45
2019-02-22T00:20:25.840Z,15.05
2019-02-22T00:22:54.581Z,14.83
2019-02-22T00:25:23.337Z,14.18
2019-02-22T00:27:52.121Z,14.53
2019-02-22T00:30:21.628Z,13.00
2019-02-22T00:32:50.429Z,14.25
2019-02-22T00:35:19.220Z,13.85
2019-02-22T00:37:48.066Z,13.43
2019-02-22T00:40:17.106Z,12.03
2019-02-22T00:42:45.925Z,13.20
2019-02-22T00:45:14.705Z,13.62
2019-02-22T00:47:43.491Z,13.70
2019-02-22T00:50:12.328Z,12.28
2019-02-22T00:52:41.178Z,12.68
2019-02-22T00:55:10.030Z,10.63
2019-02-22T00:57:38.821Z,11.38
2019-02-22T01:00:09.858Z,11.05
2019-02-22T01:02:38.652Z,9.08
2019-02-22T01:05:07.739Z,9.83
2019-02-22T01:07:36.560Z,9.10
2019-02-22T01:10:06.041Z,10.58
2019-02-22T01:12:34.793Z,9.83
2019-02-22T01:15:04.103Z,9.50
2019-02-22T01:17:33.152Z,9.70
2019-02-22T01:20:01.913Z,8.60
2019-02-22T01:22:30.741Z,9.10
2019-02-22T01:24:59.516Z,10.03
2019-02-22T01:27:28.355Z,8.55
2019-02-22T01:29:57.196Z,9.35
2019-02-22T01:32:25.934Z,9.68
2019-02-22T01:34:54.724Z,9.80
2019-02-22T01:37:23.585Z,9.23
2019-02-22T01:39:52.315Z,8.35
2019-02-22T01:42:21.350Z,8.98
2019-02-22T01:44:50.186Z,8.40
2019-02-22T01:47:18.957Z,9.23
2019-02-22T01:49:47.697Z,8.28
2019-02-22T01:52:16.499Z,7.92
2019-02-22T01:54:45.337Z,7.62
2019-02-22T01:57:14.148Z,6.70
2019-02-22T01:59:43.151Z,6.65
2019-02-22T02:02:11.930Z,6.90
2019-02-22T02:04:41.021Z,6.45
2019-02-22T02:07:09.814Z,5.92
2019-02-22T02:09:38.663Z,6.00
2019-02-22T02:12:07.411Z,6.78
2019-02-22T02:14:36.144Z,6.40
2019-02-22T02:17:05.682Z,6.70
2019-02-22T02:19:34.529Z,6.83
2019-02-22T02:22:03.306Z,6.58
2019-02-22T02:24:32.036Z,6.92
2019-02-22T02:27:01.095Z,6.05
2019-02-22T02:29:29.855Z,5.37
2019-02-22T02:31:58.666Z,5.75
2019-02-22T02:34:27.470Z,6.25
2019-02-22T02:36:56.261Z,5.45
2019-02-22T02:39:25.066Z,5.22
2019-02-22T02:41:53.884Z,5.00
2019-02-22T02:44:22.645Z,5.78
2019-02-22T02:46:51.377Z,4.70
2019-02-22T02:49:20.218Z,5.33
2019-02-22T02:51:49.045Z,4.55
2019-02-22T02:54:18.086Z,5.00
2019-02-22T02:56:46.805Z,4.45
2019-02-22T02:59:15.566Z,4.87
2019-02-22T03:01:44.376Z,4.85
2019-02-22T03:04:13.146Z,4.15
2019-02-22T03:06:43.557Z,3.95
2019-02-22T03:09:12.363Z,4.30
2019-02-22T03:11:41.140Z,3.50
2019-02-22T03:14:09.942Z,4.12
2019-02-22T03:16:38.743Z,5.00
2019-02-22T03:19:07.468Z,4.78
2019-02-22T03:21:36.219Z,4.70
2019-02-22T03:24:05.049Z,4.72
2019-02-22T03:26:33.793Z,4.15
2019-02-22T03:29:02.680Z,4.45
2019-02-22T03:31:31.753Z,4.28
2019-02-22T03:34:01.013Z,4.35
2019-02-22T03:36:29.830Z,4.30
2019-02-22T03:38:58.671Z,4.17
2019-02-22T03:41:33.036Z,4.12
2019-02-22T03:43:57.940Z,3.47
2019-02-22T03:46:26.713Z,3.90
2019-02-22T03:48:55.555Z,3.60
2019-02-22T03:51:24.426Z,3.10
2019-02-22T03:53:53.946Z,3.20
2019-02-22T03:56:22.787Z,3.67
2019-02-22T03:58:51.551Z,3.83
2019-02-22T04:01:20.470Z,3.00
2019-02-22T04:03:49.325Z,2.70
2019-02-22T04:06:18.071Z,3.15
2019-02-22T04:08:46.825Z,2.67
2019-02-22T04:11:15.667Z,2.72
2019-02-22T04:13:44.453Z,3.40
2019-02-22T04:16:13.230Z,3.22
2019-02-22T04:18:42.012Z,2.87
2019-02-22T04:21:10.736Z,3.27
2019-02-22T04:23:39.566Z,3.40
2019-02-22T04:26:08.447Z,4.58
2019-02-22T04:28:37.193Z,6.05
2019-02-22T04:31:05.961Z,7.37
2019-02-22T04:33:34.747Z,6.75
2019-02-22T04:36:03.515Z,8.08
2019-02-22T04:38:32.373Z,6.72
2019-02-22T04:41:01.207Z,7.80
2019-02-22T04:43:30.049Z,7.87
2019-02-22T04:45:59.054Z,9.40
2019-02-22T04:48:27.817Z,6.83
2019-02-22T04:50:56.604Z,8.45
2019-02-22T04:53:25.428Z,6.85
2019-02-22T04:55:54.254Z,8.70
2019-02-22T04:58:23.003Z,8.53
2019-02-22T05:00:51.757Z,7.95
2019-02-22T05:03:20.560Z,7.35
2019-02-22T05:05:49.570Z,6.65
2019-02-22T05:08:18.373Z,7.15
2019-02-22T05:10:47.218Z,8.90
2019-02-22T05:13:16.072Z,8.78
2019-02-22T05:15:44.929Z,13.83
2019-02-22T05:18:13.801Z,13.10
2019-02-22T05:20:42.583Z,15.85
2019-02-22T05:23:11.460Z,12.07
2019-02-22T05:25:40.203Z,12.95
2019-02-22T05:28:09.064Z,11.95
2019-02-22T05:30:37.809Z,13.28
2019-02-22T05:33:06.584Z,14.40
2019-02-22T05:35:35.469Z,16.20
2019-02-22T05:38:04.254Z,19.70
2019-02-22T05:40:33.064Z,15.88
2019-02-22T05:43:01.810Z,15.32
2019-02-22T05:45:30.578Z,17.50
2019-02-22T05:47:59.405Z,15.35
2019-02-22T05:50:28.241Z,14.83
2019-02-22T05:52:57.073Z,15.10
2019-02-22T05:55:26.083Z,18.87
2019-02-22T05:57:54.987Z,12.43
2019-02-22T06:00:23.779Z,15.23
2019-02-22T06:02:52.550Z,12.30
2019-02-22T06:05:21.321Z,13.85
2019-02-22T06:07:50.173Z,13.75
2019-02-22T06:10:19.024Z,17.15
2019-02-22T06:12:47.848Z,16.40
2019-02-22T06:15:16.613Z,15.65
2019-02-22T06:17:45.382Z,13.50
2019-02-22T06:20:14.678Z,15.85
2019-02-22T06:22:43.760Z,17.07
2019-02-22T06:25:12.587Z,16.75
2019-02-22T06:27:41.440Z,13.03
2019-02-22T06:30:10.845Z,10.28
2019-02-22T06:32:42.275Z,9.10
2019-02-22T06:35:10.954Z,11.85
2019-02-22T06:37:39.771Z,7.70
2019-02-22T06:40:09.370Z,7.33
2019-02-22T06:42:45.290Z,7.97
2019-02-22T06:45:09.341Z,4.97
2019-02-22T06:47:38.091Z,6.40
2019-02-22T06:50:08.398Z,5.65
2019-02-22T06:52:37.317Z,6.47
2019-02-22T06:55:06.506Z,5.33
2019-02-22T06:57:35.330Z,4.92
2019-02-22T07:00:06.718Z,5.15
2019-02-22T07:02:35.480Z,5.47
2019-02-22T07:05:05.645Z,5.65
2019-02-22T07:07:34.726Z,4.28
2019-02-22T07:10:03.860Z,6.17
2019-02-22T07:12:39.941Z,5.33
2019-02-22T07:15:09.055Z,5.10
2019-02-22T07:17:37.968Z,6.22
2019-02-22T07:20:09.339Z,4.60
2019-02-22T07:22:38.157Z,3.92
2019-02-22T07:25:09.828Z,4.12
2019-02-22T07:27:38.602Z,3.33
2019-02-22T07:30:11.531Z,4.60
2019-02-22T07:32:40.417Z,3.37
2019-02-22T07:35:09.914Z,3.27
2019-02-22T07:37:38.818Z,3.35
2019-02-22T07:40:09.364Z,2.70
2019-02-22T07:42:38.133Z,2.50
2019-02-22T07:45:09.746Z,2.80
2019-02-22T07:47:41.388Z,2.45
2019-02-22T07:50:10.745Z,2.45
2019-02-22T07:52:39.507Z,2.83
2019-02-22T07:55:09.546Z,3.00
2019-02-22T07:57:40.126Z,2.58
2019-02-22T08:00:12.440Z,2.92
2019-02-22T08:02:41.316Z,2.55
2019-02-22T08:05:10.278Z,2.12
2019-02-22T08:07:39.119Z,2.30
2019-02-22T08:10:08.183Z,2.15
2019-02-22T08:12:37.048Z,2.15
2019-02-22T08:15:07.777Z,2.12
2019-02-22T08:17:36.568Z,2.15
2019-02-22T08:20:08.137Z,2.17
2019-02-22T08:22:38.443Z,2.00
2019-02-22T08:25:07.826Z,2.10
2019-02-22T08:27:36.894Z,2.35
2019-02-22T08:30:09.037Z,2.30
2019-02-22T08:32:37.873Z,2.00
2019-02-22T08:35:10.670Z,2.85
2019-02-22T08:37:39.489Z,2.45
2019-02-22T08:40:10.288Z,1.98
2019-02-22T08:42:39.096Z,2.22
2019-02-22T08:45:09.758Z,2.35
2019-02-22T08:47:38.720Z,2.50
2019-02-22T08:50:08.166Z,2.08
2019-02-22T08:52:37.185Z,2.05
2019-02-22T08:55:06.689Z,1.90
2019-02-22T08:57:35.439Z,2.08
2019-02-22T09:00:06.049Z,2.35
2019-02-22T09:02:34.862Z,2.30
2019-02-22T09:05:03.797Z,2.42
2019-02-22T09:07:32.653Z,2.00
2019-02-22T09:10:01.474Z,1.85
2019-02-22T09:12:30.263Z,1.65
2019-02-22T09:14:59.074Z,2.10
2019-02-22T09:17:27.903Z,1.87
2019-02-22T09:19:56.650Z,1.90
2019-02-22T09:22:25.519Z,1.50
2019-02-22T09:24:54.345Z,1.70
2019-02-22T09:27:23.106Z,1.22
2019-02-22T09:29:58.834Z,1.60
2019-02-22T09:32:22.505Z,1.57
2019-02-22T09:34:51.281Z,1.75
2019-02-22T09:37:20.092Z,2.10
2019-02-22T09:39:49.064Z,1.32
2019-02-22T09:42:17.848Z,1.40
2019-02-22T09:44:46.594Z,3.60
2019-02-22T09:47:15.622Z,2.08
2019-02-22T09:49:44.371Z,2.10
2019-02-22T09:52:13.151Z,1.40
2019-02-22T09:54:41.966Z,1.30
2019-02-22T09:57:10.754Z,2.00
2019-02-22T09:59:39.557Z,1.50
2019-02-22T10:02:08.357Z,1.32
2019-02-22T10:04:37.158Z,1.57
2019-02-22T10:07:05.914Z,1.50
2019-02-22T10:09:34.717Z,2.10
2019-02-22T10:12:03.448Z,2.17
2019-02-22T10:14:32.239Z,1.32
2019-02-22T10:17:01.024Z,1.50
2019-02-22T10:19:29.799Z,1.20
2019-02-22T10:21:58.614Z,1.65
2019-02-22T10:24:27.435Z,1.75
2019-02-22T10:26:56.230Z,1.62
2019-02-22T10:29:25.040Z,1.50
2019-02-22T10:31:53.777Z,1.50
2019-02-22T10:34:22.539Z,1.30
2019-02-22T10:36:51.325Z,1.20
2019-02-22T10:39:20.086Z,3.10
2019-02-22T10:41:48.964Z,1.50
2019-02-22T10:44:18.127Z,1.80
2019-02-22T10:46:47.087Z,2.27
2019-02-22T10:49:15.815Z,3.12
2019-02-22T10:51:44.624Z,1.92
2019-02-22T10:54:13.387Z,1.75
2019-02-22T10:56:42.150Z,1.30
2019-02-22T10:59:10.951Z,1.82
2019-02-22T11:01:39.851Z,1.67
2019-02-22T11:04:08.715Z,1.80
2019-02-22T11:06:37.529Z,1.70
2019-02-22T11:09:07.159Z,1.60
2019-02-22T11:11:35.904Z,1.77
2019-02-22T11:14:06.625Z,1.42
2019-02-22T11:16:35.433Z,1.90
2019-02-22T11:19:04.165Z,1.95
2019-02-22T11:21:32.935Z,1.32
2019-02-22T11:24:01.706Z,1.80
2019-02-22T11:26:30.490Z,2.05
2019-02-22T11:28:59.259Z,1.75
2019-02-22T11:31:28.261Z,1.90
2019-02-22T11:33:57.106Z,1.95
2019-02-22T11:36:25.877Z,2.05
2019-02-22T11:38:54.675Z,1.92
2019-02-22T11:41:23.420Z,1.87
2019-02-22T11:43:52.538Z,2.15
2019-02-22T11:46:21.298Z,2.80
2019-02-22T11:48:50.027Z,1.60
2019-02-22T11:51:18.787Z,1.80
2019-02-22T11:53:47.756Z,2.00
2019-02-22T11:56:16.616Z,2.45
2019-02-22T11:58:45.499Z,1.65
2019-02-22T12:01:14.696Z,2.83
2019-02-22T12:03:45.231Z,1.65
2019-02-22T12:06:13.775Z,1.90
2019-02-22T12:08:42.329Z,2.07
2019-02-22T12:11:10.809Z,2.07
2019-02-22T12:13:39.285Z,2.40
2019-02-22T12:16:07.801Z,2.33
2019-02-22T12:18:36.690Z,2.80
2019-02-22T12:21:05.247Z,2.50
2019-02-22T12:23:36.406Z,3.23
2019-02-22T12:26:05.036Z,2.20
2019-02-22T12:28:33.486Z,2.50
2019-02-22T12:31:02.065Z,1.80
2019-02-22T12:33:30.572Z,2.30
2019-02-22T12:35:59.155Z,2.73
2019-02-22T12:38:28.341Z,1.67
2019-02-22T12:40:56.955Z,2.70
2019-02-22T12:43:25.538Z,2.00
2019-02-22T12:45:54.016Z,1.97
2019-02-22T12:48:22.480Z,2.00
2019-02-22T12:50:50.974Z,2.20
2019-02-22T12:53:19.678Z,2.23
2019-02-22T12:55:48.170Z,2.10
2019-02-22T12:58:16.712Z,1.87
2019-02-22T13:00:45.510Z,1.60
2019-02-22T13:03:14.098Z,1.50
2019-02-22T13:05:42.585Z,2.00
2019-02-22T13:08:11.208Z,2.10
2019-02-22T13:10:39.648Z,2.00
2019-02-22T13:13:08.152Z,1.97
2019-02-22T13:15:36.639Z,2.37
2019-02-22T13:18:05.089Z,2.53
2019-02-22T13:20:33.591Z,2.13
2019-02-22T13:23:02.279Z,2.00
2019-02-22T13:25:30.776Z,2.17
2019-02-22T13:27:59.323Z,1.97
2019-02-22T13:30:27.819Z,1.93
2019-02-22T13:32:56.354Z,2.40
2019-02-22T13:35:24.879Z,2.20
2019-02-22T13:37:53.449Z,2.17
2019-02-22T13:40:21.964Z,1.70
2019-02-22T13:42:50.534Z,2.10
2019-02-22T13:45:26.693Z,2.00
2019-02-22T13:47:49.168Z,1.80
2019-02-22T13:50:18.474Z,1.90
2019-02-22T13:52:48.700Z,2.60
2019-02-22T13:55:17.230Z,2.27
2019-02-22T13:57:45.786Z,2.70
2019-02-22T14:00:18.321Z,2.33
2019-02-22T14:02:46.842Z,2.40
2019-02-22T14:05:15.389Z,2.30
2019-02-22T14:07:54.912Z,3.70
2019-02-22T14:10:24.404Z,2.20
2019-02-22T14:12:52.940Z,2.53
2019-02-22T14:15:21.963Z,2.50
2019-02-22T14:17:50.521Z,2.50
2019-02-22T14:20:19.079Z,1.97
2019-02-22T14:22:49.365Z,2.40
2019-02-22T14:25:17.847Z,3.13
2019-02-22T14:27:46.316Z,2.70
2019-02-22T14:30:15.917Z,2.80
2019-02-22T14:32:44.418Z,2.50
2019-02-22T14:35:13.078Z,2.50
2019-02-22T14:37:41.701Z,2.73
2019-02-22T14:40:13.761Z,2.50
2019-02-22T14:42:42.210Z,2.70
2019-02-22T14:45:11.960Z,3.30
2019-02-22T14:47:40.531Z,3.00
2019-02-22T14:50:19.129Z,2.60
2019-02-22T14:52:47.632Z,2.73
2019-02-22T14:55:16.186Z,2.30
2019-02-22T14:57:45.342Z,2.90
2019-02-22T15:00:16.400Z,2.40
2019-02-22T15:02:44.931Z,2.90
2019-02-22T15:05:14.684Z,2.57
2019-02-22T15:07:43.195Z,2.40
2019-02-22T15:10:12.195Z,3.40
2019-02-22T15:12:40.984Z,2.35
2019-02-22T15:15:12.400Z,2.85
2019-02-22T15:17:57.400Z,2.60
2019-02-22T15:20:26.146Z,2.58
2019-02-22T15:22:54.914Z,2.10
2019-02-22T15:25:23.758Z,2.35
2019-02-22T15:27:52.475Z,2.60
2019-02-22T15:30:21.203Z,2.52
2019-02-22T15:32:49.983Z,2.02
2019-02-22T15:35:19.029Z,2.55
2019-02-22T15:37:47.794Z,2.22
2019-02-22T15:40:16.623Z,2.20
2019-02-22T15:42:45.478Z,2.10
2019-02-22T15:45:18.487Z,2.62
2019-02-22T15:47:48.809Z,2.62
2019-02-22T15:50:18.766Z,2.72
2019-02-22T15:52:48.851Z,2.33
2019-02-22T15:55:17.579Z,2.75
2019-02-22T15:57:46.664Z,1.95
2019-02-22T16:00:21.741Z,2.12
2019-02-22T16:02:50.464Z,2.37
2019-02-22T16:05:26.846Z,2.50
2019-02-22T16:07:55.636Z,2.42
2019-02-22T16:10:24.388Z,2.67
2019-02-22T16:12:53.130Z,3.00
2019-02-22T16:15:21.864Z,3.00
2019-02-22T16:17:50.665Z,3.67
2019-02-22T16:20:19.506Z,4.00
2019-02-22T16:22:51.240Z,2.90
2019-02-22T16:25:20.119Z,3.12
2019-02-22T16:27:49.159Z,2.85
2019-02-22T16:30:19.839Z,2.72
2019-02-22T16:32:48.553Z,2.40
2019-02-22T16:35:17.292Z,2.77
2019-02-22T16:37:46.040Z,3.45
2019-02-22T16:40:14.823Z,3.25
2019-02-22T16:42:43.894Z,3.05
2019-02-22T16:45:13.619Z,3.58
2019-02-22T16:47:42.378Z,2.90
2019-02-22T16:50:13.340Z,3.58
2019-02-22T16:52:44.393Z,3.00
2019-02-22T16:55:15.142Z,3.62
2019-02-22T16:57:43.876Z,3.17
2019-02-22T17:00:14.512Z,3.00
2019-02-22T17:02:43.284Z,3.58
2019-02-22T17:05:16.376Z,4.15
2019-02-22T17:07:45.128Z,3.58
2019-02-22T17:10:14.157Z,3.83
2019-02-22T17:12:42.920Z,3.45
2019-02-22T17:15:13.892Z,4.85
2019-02-22T17:17:42.874Z,4.78
2019-02-22T17:20:15.182Z,5.10
2019-02-22T17:22:43.976Z,4.25
2019-02-22T17:25:15.757Z,4.65
2019-02-22T17:27:44.525Z,5.15
2019-02-22T17:30:15.537Z,5.00
2019-02-22T17:32:44.364Z,4.10
2019-02-22T17:35:13.121Z,4.62
2019-02-22T17:37:41.877Z,4.00
2019-02-22T17:40:15.996Z,2.77
2019-02-22T17:42:44.782Z,2.72
2019-02-22T17:45:13.877Z,3.35
2019-02-22T17:47:42.621Z,2.90
2019-02-22T17:50:11.622Z,3.60
2019-02-22T17:52:40.489Z,2.75
2019-02-22T17:55:10.195Z,4.20
2019-02-22T17:57:38.924Z,3.70
2019-02-22T18:00:12.274Z,4.40
2019-02-22T18:02:41.058Z,4.25
2019-02-22T18:05:09.789Z,4.15
2019-02-22T18:07:38.548Z,4.55
2019-02-22T18:10:09.153Z,6.37
2019-02-22T18:12:37.913Z,4.40
2019-02-22T18:15:11.120Z,4.80
2019-02-22T18:17:41.048Z,4.70
2019-02-22T18:20:09.838Z,4.58
2019-02-22T18:22:38.701Z,5.10
2019-02-22T18:25:08.745Z,5.15
2019-02-22T18:27:37.477Z,5.78
2019-02-22T18:30:20.030Z,5.10
2019-02-22T18:32:48.826Z,4.83
2019-02-22T18:35:18.276Z,5.30
2019-02-22T18:37:47.257Z,5.08
2019-02-22T18:40:17.992Z,4.85
2019-02-22T18:42:46.792Z,5.47
2019-02-22T18:45:15.568Z,4.80
2019-02-22T18:47:44.335Z,5.53
2019-02-22T18:50:13.187Z,5.50
2019-02-22T18:52:42.015Z,5.17
2019-02-22T18:55:11.209Z,4.78
2019-02-22T18:57:40.082Z,49.08
2019-02-22T19:00:18.223Z,62.67
2019-02-22T19:02:47.045Z,6.75
2019-02-22T19:05:15.797Z,4.95
2019-02-22T19:07:44.554Z,5.75
2019-02-22T19:10:15.138Z,6.45
2019-02-22T19:12:44.108Z,6.05
2019-02-22T19:15:13.873Z,6.60
2019-02-22T19:17:42.740Z,6.00
2019-02-22T19:20:13.997Z,6.10
2019-02-22T19:22:43.093Z,5.97
2019-02-22T19:25:11.869Z,6.10
2019-02-22T19:27:40.661Z,5.92
2019-02-22T19:30:14.300Z,7.17
2019-02-22T19:32:43.169Z,6.15
2019-02-22T19:35:11.939Z,5.37
2019-02-22T19:37:40.733Z,6.10
2019-02-22T19:40:12.185Z,5.85
2019-02-22T19:42:40.999Z,5.58
2019-02-22T19:45:11.585Z,6.00
2019-02-22T19:47:42.083Z,6.70
2019-02-22T19:50:12.824Z,6.25
2019-02-22T19:52:41.657Z,5.97
2019-02-22T19:55:12.966Z,7.12
2019-02-22T19:57:41.762Z,7.95
2019-02-22T20:00:13.334Z,8.15
2019-02-22T20:02:42.182Z,7.70
2019-02-22T20:05:11.880Z,7.45
2019-02-22T20:07:40.691Z,7.17
2019-02-22T20:10:17.782Z,6.20
2019-02-22T20:12:42.363Z,5.80
2019-02-22T20:15:13.579Z,5.47
2019-02-22T20:17:53.109Z,5.80
2019-02-22T20:20:15.226Z,5.85
2019-02-22T20:22:44.097Z,6.20
2019-02-22T20:25:12.922Z,6.45
2019-02-22T20:27:41.710Z,6.58
2019-02-22T20:30:17.553Z,7.33
2019-02-22T20:32:46.680Z,6.95
2019-02-22T20:35:21.993Z,7.17
2019-02-22T20:37:52.965Z,7.00
2019-02-22T20:40:21.554Z,5.50
2019-02-22T20:42:50.365Z,6.80
2019-02-22T20:45:19.423Z,7.55
2019-02-22T20:47:48.219Z,6.00
2019-02-22T20:50:17.042Z,5.75
2019-02-22T20:52:45.843Z,5.55
2019-02-22T20:55:14.630Z,5.55
2019-02-22T20:57:43.415Z,5.45
2019-02-22T21:00:20.828Z,5.90
2019-02-22T21:02:49.677Z,5.80
2019-02-22T21:05:18.514Z,5.83
2019-02-22T21:07:47.326Z,6.00
2019-02-22T21:10:20.748Z,6.20
2019-02-22T21:12:49.532Z,6.95
2019-02-22T21:15:18.280Z,5.60
2019-02-22T21:17:47.066Z,5.30
2019-02-22T21:20:21.230Z,5.42
2019-02-22T21:22:50.782Z,5.60
2019-02-22T21:25:19.633Z,4.90
2019-02-22T21:27:48.434Z,5.08
2019-02-22T21:30:19.815Z,5.10
2019-02-22T21:32:48.716Z,4.45
2019-02-22T21:35:17.854Z,4.75
2019-02-22T21:37:46.825Z,4.15
2019-02-22T21:40:15.597Z,4.90
2019-02-22T21:42:44.732Z,4.65
2019-02-22T21:45:15.524Z,4.55
2019-02-22T21:47:54.206Z,4.45
2019-02-22T21:50:15.739Z,4.22
2019-02-22T21:52:44.671Z,4.97
2019-02-22T21:55:16.477Z,4.37
2019-02-22T21:57:45.269Z,4.47
2019-02-22T22:00:21.319Z,4.40
2019-02-22T22:02:50.089Z,4.22
2019-02-22T22:05:18.936Z,4.35
2019-02-22T22:07:47.796Z,4.47
2019-02-22T22:10:16.816Z,4.65
2019-02-22T22:12:45.838Z,4.47
2019-02-22T22:15:15.613Z,4.33
2019-02-22T22:17:44.347Z,4.47
2019-02-22T22:20:13.870Z,4.42
2019-02-22T22:22:42.714Z,4.58
2019-02-22T22:25:15.263Z,5.00
2019-02-22T22:27:44.037Z,5.37
2019-02-22T22:30:13.817Z,4.95
2019-02-22T22:32:42.548Z,5.35
2019-02-22T22:35:12.805Z,5.35
2019-02-22T22:37:41.638Z,4.92
2019-02-22T22:40:10.963Z,5.17
2019-02-22T22:42:40.105Z,4.83
2019-02-22T22:45:11.559Z,4.97
2019-02-22T22:47:40.338Z,4.92
2019-02-22T22:50:11.608Z,4.37
2019-02-22T22:52:40.390Z,5.20
2019-02-22T22:55:10.365Z,4.92
2019-02-22T22:57:39.235Z,4.90
2019-02-22T23:00:51.733Z,5.03
2019-02-22T23:03:21.172Z,4.55
2019-02-22T23:05:49.919Z,5.05
2019-02-22T23:08:18.671Z,4.85
2019-02-22T23:10:47.490Z,5.20
2019-02-22T23:13:16.267Z,4.35
2019-02-22T23:15:45.023Z,4.97
2019-02-22T23:18:13.870Z,5.12
2019-02-22T23:20:42.645Z,5.28
2019-02-22T23:23:11.426Z,4.95
2019-02-22T23:25:40.293Z,4.87
2019-02-22T23:28:09.067Z,4.97
2019-02-22T23:30:37.846Z,4.47
2019-02-22T23:33:06.728Z,5.15
2019-02-22T23:35:35.580Z,4.67
2019-02-22T23:38:04.315Z,5.33
2019-02-22T23:40:33.056Z,4.20
2019-02-22T23:43:01.841Z,4.92
2019-02-22T23:45:31.125Z,4.37
2019-02-22T23:47:59.940Z,4.55
2019-02-22T23:50:28.786Z,5.30
2019-02-22T23:52:57.560Z,5.47
2019-02-22T23:55:26.359Z,4.92
2019-02-22T23:57:55.199Z,5.08
